Sedgwick Reserve, California Weather observations

Data are for 10 minute period ending at time listed.
 Day   Time   Solar   Ave.   Ave.  Ave.  Vector  Max.   Baro.   Total    
  of    of     Rad.   Air    Rel.  Wind   Wind   Wind  Press.  Precip.   
Year   Day            Temp.  Hum.  Speed  Dir.   Gust                    
2026   (PST)  Kw/m2    F      %     mph   deg.    mph    mb.     in.     
-------------------------------------------------------------------------
 125    2:20   0.00   47.1    95    1.3    20     2.6   973.5    0.00 
 125    2:30   0.00   46.4    96    1.4   273     2.6   973.5    0.00 
 125    2:40   0.00   46.0    96    0.3   106     1.2   973.4    0.00 
 125    2:50   0.00   46.4    97    0.1   259     1.5   973.4    0.00 
 125    3:00   0.00   45.9    97    0.3   309     1.5   973.4    0.00 
 125    3:10   0.00   46.1    97    0.9   102     2.9   973.4    0.00 
 125    3:20   0.00   46.3    97    0.7   129     1.7   973.4    0.00 
 125    3:30   0.00   46.1    98    1.8   213     3.3   973.4    0.00 
 125    3:40   0.00   46.5    98    1.4   125     4.1   973.5    0.00 
 125    3:50   0.00   46.8    98    1.7    98     2.9   973.5    0.00 
 125    4:00   0.00   47.1    98    0.2    71     2.0   973.5    0.00 
 125    4:10   0.00   47.2    98    0.3   269     1.5   973.5    0.00 
 125    4:20   0.00   47.1    98    1.0   237     2.2   973.4    0.00 
 125    4:30   0.00   47.2    98    0.5   196     1.3   973.4    0.00 
 125    4:40   0.00   47.4    98    0.4   243     1.2   973.4    0.00 
 125    4:50   0.00   47.4    98    0.0     0     0.0   973.3    0.00 
 125    5:00   0.00   47.5    98    0.0   164     0.7   973.3    0.00 
 125    5:10   0.00   47.4    98    0.5    97     1.3   973.4    0.00 
 125    5:20   0.01   47.4    98    0.7   100     1.8   973.4    0.00 
 125    5:30   0.01   47.4    98    1.5    99     2.7   973.5    0.00 
 125    5:40   0.02   47.4    98    1.8    95     2.9   973.6    0.00 
 125    5:50   0.03   47.4    99    0.2   312     1.0   973.6    0.00 
 125    6:00   0.07   47.7    99    0.0   285     0.7   973.6    0.00 
 125    6:10   0.14   48.5    99    0.5    40     2.1   973.6    0.00 
 125    6:20   0.18   49.7    98    1.0   108     3.1   973.7    0.00 
 125    6:30   0.14   50.1    96    1.6   121     3.4   973.8    0.00 
 125    6:40   0.10   50.1    95    1.7   105     3.4   973.9    0.00 
 125    6:50   0.09   50.0    95    1.4   134     3.4   973.9    0.00 
 125    7:00   0.08   50.0    95    2.3    85     4.4   973.9    0.00 
 125    7:10   0.11   50.4    95    1.5    86     3.0   974.0    0.00 
 125    7:20   0.19   50.5    94    2.7   158     4.1   974.0    0.00 
 125    7:30   0.45   52.1    92    2.1   165     4.2   974.0    0.00 
 125    7:40   0.46   54.1    85    1.2   184     3.3   974.0    0.00 
 125    7:50   0.49   55.7    80    1.8   153     4.6   974.0    0.00 
 125    8:00   0.52   57.0    74    1.8   160     4.7   974.0    0.00 
 125    8:10   0.56   58.0    71    2.5   192     5.6   973.9    0.00 
 125    8:20   0.61   59.1    66    6.3   271    14.6   974.0    0.00 
 125    8:30   0.47   58.2    65    9.6   282    15.7   974.0    0.00 
 125    8:40   0.20   57.5    67    9.4   281    15.4   974.0    0.00 
 125    8:50   0.55   58.0    66   10.5   282    18.0   973.9    0.00 
 125    9:00   0.64   59.4    63    9.6   279    15.9   973.8    0.00 
 125    9:10   0.71   60.8    60    9.9   289    15.5   973.9    0.00 
 125    9:20   0.75   61.6    57   10.1   292    17.4   973.9    0.00 
 125    9:30   0.69   62.0    57    9.4   292    17.0   973.9    0.00 
 125    9:40   0.60   63.3    54    8.1   303    14.2   974.0    0.00 
 125    9:50   0.39   62.6    55    8.2   318    13.7   974.1    0.00 
 125   10:00   0.38   62.3    56    6.8   294    12.0   974.0    0.00 
 125   10:10   0.66   63.2    53    7.1   300    14.5   974.0    0.00 
 125   10:20   0.83   64.0    52    8.8   293    13.7   973.9    0.00 
 125   10:30   0.87   64.2    53    7.3   275    15.3   973.9    0.00 
 125   10:40   0.61   65.4    50    7.9   290    14.1   973.8    0.00 
 125   10:50   0.56   64.4    53    9.8   290    16.3   973.8    0.00 
 125   11:00   0.45   63.7    54    9.0   282    16.1   973.9    0.00 
 125   11:10   0.52   63.4    55   10.3   294    20.4   974.0    0.00 
 125   11:20   0.70   64.3    55   10.0   295    16.6   974.0    0.00 
 125   11:30   0.85   64.5    54   13.6   293    24.9   974.1    0.00 
 125   11:40   0.93   65.2    53   13.1   304    21.4   974.0    0.00 
 125   11:50   1.02   66.9    51    9.0   302    18.3   973.9    0.00 
 125   12:00   0.68   67.8    49    8.4   317    19.4   973.9    0.00 
 125   12:10   0.51   65.8    52   11.3   319    19.5   973.9    0.00 
 125   12:20   0.58   66.0    52    8.4   318    16.4   973.9    0.00 
 125   12:30   0.58   66.1    52    7.3   312    15.0   974.0    0.00 
 125   12:40   0.78   66.9    50    8.7   320    16.3   973.9    0.00 
 125   12:50   0.68   67.0    50   10.2   290    16.8   973.9    0.00 
 125   13:00   0.99   66.9    50   13.1   280    18.8   973.8    0.00 
 125   13:10   0.74   67.1    51   11.4   309    21.1   973.9    0.00 
 125   13:20   0.71   66.4    52   12.8   317    23.0   974.0    0.00 
 125   13:30   0.45   64.9    55   10.9   312    20.8   974.0    0.00 
 125   13:40   0.49   63.6    57   13.8   309    23.0   974.0    0.00 
 125   13:50   0.65   63.8    57   13.6   311    21.2   973.9    0.00 
 125   14:00   0.57   64.3    56   12.7   301    21.9   973.8    0.00 
 125   14:10   0.48   63.8    56   12.8   295    21.2   973.8    0.00 
 125   14:20   0.47   63.6    56   12.1   304    19.4   973.7    0.00 
 125   14:30   0.77   65.4    53   12.5   318    20.2   973.7    0.00 
 125   14:40   0.73   66.3    52    9.2   310    17.3   973.6    0.00 
 125   14:50   0.92   69.1    48    8.9   306    15.8   973.5    0.00 
 125   15:00   0.52   66.3    52   11.0   300    18.3   973.5    0.00 
 125   15:10   0.89   66.6    51   12.1   293    21.0   973.4    0.00 
 125   15:20   0.83   66.9    51   12.1   314    19.9   973.4    0.00 
 125   15:30   0.59   66.7    51   11.2   306    19.3   973.4    0.00 
 125   15:40   0.48   66.1    53   12.6   313    21.5   973.3    0.00 
 125   15:50   0.36   64.3    56    9.8   284    21.9   973.2    0.00 
 125   16:00   0.24   64.0    57   12.2   293    21.9   973.3    0.00 
 125   16:10   0.50   63.2    59   13.2   283    21.5   973.4    0.00 
 125   16:20   0.43   65.9    55   10.5   298    18.9   973.4    0.00 
 125   16:30   0.41   64.2    58   11.6   295    19.5   973.4    0.00 
 125   16:40   0.40   64.2    58   12.8   294    20.0   973.4    0.00 
 125   16:50   0.32   63.1    60   11.7   282    17.6   973.4    0.00 
 125   17:00   0.33   63.6    60   11.1   298    17.8   973.6    0.00 
 125   17:10   0.28   63.0    61   10.5   291    18.3   973.6    0.00 
 125   17:20   0.26   62.9    62   10.9   288    18.3   973.6    0.00 
 125   17:30   0.08   61.4    64   10.7   299    20.1   973.5    0.00 
 125   17:40   0.07   60.4    66   11.6   307    18.4   973.6    0.00 
 125   17:50   0.06   60.1    67   10.0   312    17.2   973.7    0.00 
 125   18:00   0.04   59.7    69   10.8   306    18.3   973.8    0.00 
 125   18:10   0.03   59.0    70    9.9   313    18.1   973.9    0.00 
 125   18:20   0.02   58.4    71    9.8   311    18.9   974.0    0.00 
 125   18:30   0.03   57.9    72    9.3   296    18.3   974.1    0.00 
 125   18:40   0.01   57.4    74   10.3   289    15.4   974.2    0.00 
 125   18:50   0.01   57.0    75    9.1   283    13.7   974.3    0.00 
 125   19:00   0.00   56.7    75    9.6   288    15.1   974.4    0.00 
 125   19:10   0.00   56.5    76    7.6   294    14.0   974.6    0.00 
 125   19:20   0.00   56.1    77    7.3   306    13.5   974.6    0.00 
 125   19:30   0.00   55.6    80    8.4   304    15.1   974.7    0.00 
 125   19:40   0.00   55.0    81    8.3   305    13.3   974.9    0.00 
 125   19:50   0.00   54.5    83    7.8   310    13.1   975.2    0.00 
 125   20:00   0.00   54.0    84    5.8   326    10.2   975.4    0.00 
 125   20:10   0.00   53.7    85    4.3   325     8.6   975.6    0.00 
 125   20:20   0.00   53.4    86    2.6   336     6.3   975.6    0.00 
 125   20:30   0.00   53.2    86    1.6   346     4.9   975.8    0.00 
 125   20:40   0.00   53.2    86    1.6   350     5.4   976.0    0.00 
 125   20:50   0.00   52.8    87    3.2   151     5.3   976.1    0.00 
 125   21:00   0.00   52.2    88    3.3   233     4.0   976.2    0.00 
 125   21:10   0.00   52.2    89    2.3   219     3.3   976.4    0.00 
 125   21:20   0.00   52.0    90    4.4   282     6.8   976.4    0.00 
 125   21:30   0.00   51.4    90    1.3   237     4.2   976.5    0.00 
 125   21:40   0.00   50.6    91    0.8   279     2.5   976.6    0.00 
 125   21:50   0.00   50.3    92    1.1   345     2.3   976.7    0.00 
 125   22:00   0.00   49.2    92    1.5    55     2.9   976.8    0.00 
 125   22:10   0.00   48.7    93    1.3    16     2.5   976.8    0.00 
 125   22:20   0.00   48.2    94    0.8   292     1.8   976.7    0.00 
 125   22:30   0.00   47.9    94    0.9     6     2.3   976.8    0.00 
 125   22:40   0.00   47.2    95    3.5    18     5.0   976.8    0.00 
 125   22:50   0.00   47.1    95    2.7     4     4.2   976.9    0.00 
 125   23:00   0.00   47.4    96    0.2   291     1.2   976.9    0.00 
 125   23:10   0.00   48.2    96    1.0   312     2.0   977.0    0.00 
 125   23:20   0.00   48.3    95    0.9   339     2.2   977.1    0.00 
 125   23:30   0.00   48.3    94    2.0    23     2.8   977.1    0.00 
 125   23:40   0.00   48.9    95    0.4     5     1.8   977.3    0.00 
 125   23:50   0.00   49.1    94    2.8    15     3.8   977.4    0.00 
 126    0:00   0.00   49.0    94    2.6     6     3.2   977.4    0.00 
 126    0:10   0.00   49.1    94    1.8    17     2.8   977.3    0.00 
 126    0:20   0.00   49.4    94    2.0     4     3.3   977.3    0.00 
 126    0:30   0.00   50.0    94    1.0   294     3.3   977.3    0.00 
 126    0:40   0.00   50.3    94    1.3   283     2.6   977.3    0.00 
 126    0:50   0.00   50.2    93    1.2    22     2.1   977.3    0.00 
 126    1:00   0.00   50.4    93    1.3    39     2.4   977.2    0.00 
 126    1:10   0.00   50.7    93    2.0   113     4.2   977.1    0.00 
 126    1:20   0.00   51.1    93    3.5   152     6.6   977.1    0.00 
 126    1:30   0.00   51.5    92    3.0   148     6.0   977.0    0.00 
 126    1:40   0.00   51.5    92    3.6   169     5.3   977.0    0.00 
 126    1:50   0.00   51.5    91    3.2   155     5.3   977.0    0.00 
 126    2:00   0.00   51.4    92    3.4   158     6.7   977.0    0.00 
 126    2:10   0.00   51.4    92    1.5   110     3.1   977.0    0.00 

Return to Sedgwick Reserve graphs page.


Western Regional Climate Center,wrcc@dri.edu